sensor_id;sensor_type;location;lat;lon;timestamp;P1;durP1;ratioP1;P2;durP2;ratioP2
61911;SDS011;49973;52.084;5.412;2023-04-01T00:01:17;18.27;;;7.03;;
61911;SDS011;49973;52.084;5.412;2023-04-01T00:03:46;15.20;;;7.23;;
61911;SDS011;49973;52.084;5.412;2023-04-01T00:06:15;25.10;;;7.13;;
61911;SDS011;49973;52.084;5.412;2023-04-01T00:08:45;19.20;;;7.57;;
61911;SDS011;49973;52.084;5.412;2023-04-01T00:11:14;25.63;;;7.40;;
61911;SDS011;49973;52.084;5.412;2023-04-01T00:13:47;29.47;;;8.13;;
61911;SDS011;49973;52.084;5.412;2023-04-01T00:16:16;25.40;;;6.87;;
61911;SDS011;49973;52.084;5.412;2023-04-01T00:18:48;24.87;;;7.83;;
61911;SDS011;49973;52.084;5.412;2023-04-01T00:21:18;32.63;;;9.00;;
61911;SDS011;49973;52.084;5.412;2023-04-01T00:23:48;28.23;;;8.57;;
61911;SDS011;49973;52.084;5.412;2023-04-01T00:26:18;30.20;;;8.60;;
61911;SDS011;49973;52.084;5.412;2023-04-01T00:28:50;30.87;;;9.47;;
61911;SDS011;49973;52.084;5.412;2023-04-01T00:31:19;26.17;;;8.43;;
61911;SDS011;49973;52.084;5.412;2023-04-01T00:33:48;26.90;;;9.90;;
61911;SDS011;49973;52.084;5.412;2023-04-01T00:36:18;45.93;;;10.93;;
61911;SDS011;49973;52.084;5.412;2023-04-01T00:38:48;23.57;;;9.50;;
61911;SDS011;49973;52.084;5.412;2023-04-01T00:41:18;28.60;;;10.30;;
61911;SDS011;49973;52.084;5.412;2023-04-01T00:43:50;30.10;;;9.80;;
61911;SDS011;49973;52.084;5.412;2023-04-01T00:46:19;28.40;;;9.93;;
61911;SDS011;49973;52.084;5.412;2023-04-01T00:48:48;26.37;;;10.20;;
61911;SDS011;49973;52.084;5.412;2023-04-01T00:51:20;31.20;;;9.37;;
61911;SDS011;49973;52.084;5.412;2023-04-01T00:53:52;27.30;;;9.73;;
61911;SDS011;49973;52.084;5.412;2023-04-01T00:56:24;27.23;;;9.63;;
61911;SDS011;49973;52.084;5.412;2023-04-01T00:58:57;23.63;;;9.80;;
61911;SDS011;49973;52.084;5.412;2023-04-01T01:01:29;40.73;;;12.90;;
61911;SDS011;49973;52.084;5.412;2023-04-01T01:03:59;30.83;;;11.03;;
61911;SDS011;49973;52.084;5.412;2023-04-01T01:06:36;33.37;;;12.03;;
61911;SDS011;49973;52.084;5.412;2023-04-01T01:09:18;33.30;;;12.03;;
61911;SDS011;49973;52.084;5.412;2023-04-01T01:11:58;41.03;;;12.23;;
61911;SDS011;49973;52.084;5.412;2023-04-01T01:14:38;42.10;;;11.73;;
61911;SDS011;49973;52.084;5.412;2023-04-01T01:17:19;32.73;;;12.07;;
61911;SDS011;49973;52.084;5.412;2023-04-01T01:20:08;35.57;;;10.33;;
61911;SDS011;49973;52.084;5.412;2023-04-01T01:26:02;27.23;;;11.03;;
61911;SDS011;49973;52.084;5.412;2023-04-01T01:28:44;29.97;;;11.30;;
61911;SDS011;49973;52.084;5.412;2023-04-01T01:31:26;28.77;;;9.93;;
61911;SDS011;49973;52.084;5.412;2023-04-01T01:34:04;30.87;;;10.77;;
61911;SDS011;49973;52.084;5.412;2023-04-01T01:36:44;24.97;;;9.93;;
61911;SDS011;49973;52.084;5.412;2023-04-01T01:39:18;32.00;;;8.87;;
61911;SDS011;49973;52.084;5.412;2023-04-01T01:41:53;25.30;;;9.77;;
61911;SDS011;49973;52.084;5.412;2023-04-01T01:44:24;23.83;;;9.17;;
61911;SDS011;49973;52.084;5.412;2023-04-01T01:46:56;18.67;;;6.90;;
61911;SDS011;49973;52.084;5.412;2023-04-01T01:49:25;10.63;;;6.07;;
61911;SDS011;49973;52.084;5.412;2023-04-01T01:51:58;20.53;;;5.97;;
61911;SDS011;49973;52.084;5.412;2023-04-01T01:54:27;13.33;;;6.17;;
61911;SDS011;49973;52.084;5.412;2023-04-01T01:56:58;19.03;;;6.00;;
61911;SDS011;49973;52.084;5.412;2023-04-01T01:59:31;14.07;;;6.23;;
61911;SDS011;49973;52.084;5.412;2023-04-01T02:02:02;16.33;;;6.70;;
61911;SDS011;49973;52.084;5.412;2023-04-01T02:04:35;17.43;;;6.73;;
61911;SDS011;49973;52.084;5.412;2023-04-01T02:07:08;18.50;;;6.97;;
61911;SDS011;49973;52.084;5.412;2023-04-01T02:09:42;20.80;;;6.67;;
61911;SDS011;49973;52.084;5.412;2023-04-01T02:12:12;16.00;;;7.03;;
61911;SDS011;49973;52.084;5.412;2023-04-01T02:14:44;12.27;;;5.73;;
61911;SDS011;49973;52.084;5.412;2023-04-01T02:17:16;10.00;;;6.00;;
61911;SDS011;49973;52.084;5.412;2023-04-01T02:19:47;12.17;;;6.13;;
61911;SDS011;49973;52.084;5.412;2023-04-01T02:22:23;15.47;;;7.23;;
61911;SDS011;49973;52.084;5.412;2023-04-01T02:24:54;15.83;;;5.93;;
61911;SDS011;49973;52.084;5.412;2023-04-01T02:27:27;16.10;;;6.83;;
61911;SDS011;49973;52.084;5.412;2023-04-01T02:29:56;13.73;;;5.70;;
61911;SDS011;49973;52.084;5.412;2023-04-01T02:32:25;12.90;;;5.87;;
61911;SDS011;49973;52.084;5.412;2023-04-01T02:34:56;21.93;;;6.73;;
61911;SDS011;49973;52.084;5.412;2023-04-01T02:37:28;20.07;;;6.77;;
61911;SDS011;49973;52.084;5.412;2023-04-01T02:39:59;11.33;;;5.97;;
61911;SDS011;49973;52.084;5.412;2023-04-01T02:42:28;12.77;;;5.27;;
61911;SDS011;49973;52.084;5.412;2023-04-01T02:44:57;15.10;;;5.00;;
61911;SDS011;49973;52.084;5.412;2023-04-01T02:47:26;15.67;;;4.77;;
61911;SDS011;49973;52.084;5.412;2023-04-01T02:49:55;14.17;;;4.70;;
61911;SDS011;49973;52.084;5.412;2023-04-01T02:52:25;11.97;;;4.80;;
61911;SDS011;49973;52.084;5.412;2023-04-01T02:54:56;10.30;;;4.97;;
61911;SDS011;49973;52.084;5.412;2023-04-01T02:57:26;11.10;;;4.60;;
61911;SDS011;49973;52.084;5.412;2023-04-01T02:59:54;19.20;;;5.87;;
61911;SDS011;49973;52.084;5.412;2023-04-01T03:02:23;12.83;;;6.03;;
61911;SDS011;49973;52.084;5.412;2023-04-01T03:04:52;17.37;;;6.43;;
61911;SDS011;49973;52.084;5.412;2023-04-01T03:07:20;16.47;;;5.03;;
61911;SDS011;49973;52.084;5.412;2023-04-01T03:09:49;9.20;;;5.00;;
61911;SDS011;49973;52.084;5.412;2023-04-01T03:12:19;10.53;;;4.30;;
61911;SDS011;49973;52.084;5.412;2023-04-01T03:14:50;9.07;;;4.53;;
61911;SDS011;49973;52.084;5.412;2023-04-01T03:17:19;11.23;;;4.40;;
61911;SDS011;49973;52.084;5.412;2023-04-01T03:19:47;13.40;;;4.30;;
61911;SDS011;49973;52.084;5.412;2023-04-01T03:22:16;9.30;;;4.20;;
61911;SDS011;49973;52.084;5.412;2023-04-01T03:24:47;9.83;;;4.30;;
61911;SDS011;49973;52.084;5.412;2023-04-01T03:27:16;8.67;;;3.67;;
61911;SDS011;49973;52.084;5.412;2023-04-01T03:29:46;10.60;;;4.30;;
61911;SDS011;49973;52.084;5.412;2023-04-01T03:32:15;8.30;;;3.83;;
61911;SDS011;49973;52.084;5.412;2023-04-01T03:34:43;7.13;;;3.53;;
61911;SDS011;49973;52.084;5.412;2023-04-01T03:37:12;14.00;;;4.60;;
61911;SDS011;49973;52.084;5.412;2023-04-01T03:39:41;8.47;;;4.20;;
61911;SDS011;49973;52.084;5.412;2023-04-01T03:42:10;13.40;;;4.90;;
61911;SDS011;49973;52.084;5.412;2023-04-01T03:44:39;8.03;;;3.93;;
61911;SDS011;49973;52.084;5.412;2023-04-01T03:47:11;11.03;;;3.83;;
61911;SDS011;49973;52.084;5.412;2023-04-01T03:49:39;7.20;;;4.20;;
61911;SDS011;49973;52.084;5.412;2023-04-01T03:52:08;9.03;;;4.67;;
61911;SDS011;49973;52.084;5.412;2023-04-01T03:54:38;8.60;;;4.70;;
61911;SDS011;49973;52.084;5.412;2023-04-01T03:57:07;12.77;;;4.07;;
61911;SDS011;49973;52.084;5.412;2023-04-01T03:59:36;16.77;;;5.10;;
61911;SDS011;49973;52.084;5.412;2023-04-01T04:02:05;11.83;;;3.63;;
61911;SDS011;49973;52.084;5.412;2023-04-01T04:04:35;9.60;;;4.80;;
61911;SDS011;49973;52.084;5.412;2023-04-01T04:07:04;12.00;;;4.10;;
61911;SDS011;49973;52.084;5.412;2023-04-01T04:09:52;11.10;;;4.77;;
61911;SDS011;49973;52.084;5.412;2023-04-01T04:12:20;13.30;;;4.30;;
61911;SDS011;49973;52.084;5.412;2023-04-01T04:14:49;8.23;;;4.03;;
61911;SDS011;49973;52.084;5.412;2023-04-01T04:17:17;12.40;;;4.83;;
61911;SDS011;49973;52.084;5.412;2023-04-01T04:19:47;9.43;;;4.80;;
61911;SDS011;49973;52.084;5.412;2023-04-01T04:22:16;11.20;;;4.47;;
61911;SDS011;49973;52.084;5.412;2023-04-01T04:24:44;7.00;;;4.60;;
61911;SDS011;49973;52.084;5.412;2023-04-01T04:27:13;9.90;;;4.47;;
61911;SDS011;49973;52.084;5.412;2023-04-01T04:29:52;12.97;;;4.30;;
61911;SDS011;49973;52.084;5.412;2023-04-01T04:32:20;7.60;;;4.10;;
61911;SDS011;49973;52.084;5.412;2023-04-01T04:34:50;9.63;;;4.77;;
61911;SDS011;49973;52.084;5.412;2023-04-01T04:37:19;12.53;;;4.40;;
61911;SDS011;49973;52.084;5.412;2023-04-01T04:39:48;9.13;;;5.00;;
61911;SDS011;49973;52.084;5.412;2023-04-01T04:42:18;11.37;;;4.70;;
61911;SDS011;49973;52.084;5.412;2023-04-01T04:44:47;14.83;;;5.67;;
61911;SDS011;49973;52.084;5.412;2023-04-01T04:47:15;18.60;;;6.40;;
61911;SDS011;49973;52.084;5.412;2023-04-01T04:49:44;14.70;;;5.80;;
61911;SDS011;49973;52.084;5.412;2023-04-01T04:52:14;13.63;;;5.27;;
61911;SDS011;49973;52.084;5.412;2023-04-01T04:54:42;16.37;;;4.90;;
61911;SDS011;49973;52.084;5.412;2023-04-01T04:57:11;12.63;;;5.07;;
61911;SDS011;49973;52.084;5.412;2023-04-01T04:59:46;9.57;;;4.40;;
61911;SDS011;49973;52.084;5.412;2023-04-01T05:02:23;13.47;;;4.30;;
61911;SDS011;49973;52.084;5.412;2023-04-01T05:04:52;12.40;;;4.40;;
61911;SDS011;49973;52.084;5.412;2023-04-01T05:07:22;7.27;;;3.30;;
61911;SDS011;49973;52.084;5.412;2023-04-01T05:09:51;7.57;;;3.63;;
61911;SDS011;49973;52.084;5.412;2023-04-01T05:12:19;8.90;;;3.57;;
61911;SDS011;49973;52.084;5.412;2023-04-01T05:14:57;6.00;;;2.73;;
61911;SDS011;49973;52.084;5.412;2023-04-01T05:17:26;9.83;;;3.10;;
61911;SDS011;49973;52.084;5.412;2023-04-01T05:19:55;8.20;;;2.60;;
61911;SDS011;49973;52.084;5.412;2023-04-01T05:22:26;10.77;;;3.00;;
61911;SDS011;49973;52.084;5.412;2023-04-01T05:24:54;11.03;;;3.50;;
61911;SDS011;49973;52.084;5.412;2023-04-01T05:27:23;8.17;;;3.47;;
61911;SDS011;49973;52.084;5.412;2023-04-01T05:29:52;10.77;;;3.97;;
61911;SDS011;49973;52.084;5.412;2023-04-01T05:32:55;12.87;;;4.20;;
61911;SDS011;49973;52.084;5.412;2023-04-01T05:35:24;12.30;;;4.50;;
61911;SDS011;49973;52.084;5.412;2023-04-01T05:37:54;14.17;;;4.27;;
61911;SDS011;49973;52.084;5.412;2023-04-01T05:40:23;10.53;;;4.33;;
61911;SDS011;49973;52.084;5.412;2023-04-01T05:42:53;9.23;;;3.83;;
61911;SDS011;49973;52.084;5.412;2023-04-01T05:45:22;15.17;;;4.57;;
61911;SDS011;49973;52.084;5.412;2023-04-01T05:48:09;9.23;;;4.07;;
61911;SDS011;49973;52.084;5.412;2023-04-01T05:50:39;14.30;;;4.00;;
61911;SDS011;49973;52.084;5.412;2023-04-01T05:53:11;8.93;;;3.50;;
61911;SDS011;49973;52.084;5.412;2023-04-01T05:55:42;7.10;;;3.37;;
61911;SDS011;49973;52.084;5.412;2023-04-01T05:58:11;8.37;;;3.30;;
61911;SDS011;49973;52.084;5.412;2023-04-01T06:00:43;6.73;;;2.90;;
61911;SDS011;49973;52.084;5.412;2023-04-01T06:03:16;8.77;;;3.47;;
61911;SDS011;49973;52.084;5.412;2023-04-01T06:05:44;8.73;;;3.23;;
61911;SDS011;49973;52.084;5.412;2023-04-01T06:08:16;7.63;;;2.97;;
61911;SDS011;49973;52.084;5.412;2023-04-01T06:10:50;12.53;;;3.23;;
61911;SDS011;49973;52.084;5.412;2023-04-01T06:13:33;7.13;;;2.70;;
61911;SDS011;49973;52.084;5.412;2023-04-01T06:16:15;5.80;;;3.20;;
61911;SDS011;49973;52.084;5.412;2023-04-01T06:18:57;4.90;;;2.63;;
61911;SDS011;49973;52.084;5.412;2023-04-01T06:21:46;5.70;;;3.03;;
61911;SDS011;49973;52.084;5.412;2023-04-01T06:24:46;7.67;;;2.63;;
61911;SDS011;49973;52.084;5.412;2023-04-01T06:27:36;6.97;;;3.40;;
61911;SDS011;49973;52.084;5.412;2023-04-01T06:30:25;11.17;;;3.10;;
61911;SDS011;49973;52.084;5.412;2023-04-01T06:33:07;9.47;;;3.00;;
61911;SDS011;49973;52.084;5.412;2023-04-01T06:35:53;6.93;;;3.00;;
61911;SDS011;49973;52.084;5.412;2023-04-01T06:38:37;6.73;;;2.03;;
61911;SDS011;49973;52.084;5.412;2023-04-01T06:41:50;6.53;;;2.93;;
61911;SDS011;49973;52.084;5.412;2023-04-01T06:44:53;7.17;;;2.97;;
61911;SDS011;49973;52.084;5.412;2023-04-01T06:48:09;5.90;;;2.50;;
61911;SDS011;49973;52.084;5.412;2023-04-01T06:51:24;7.13;;;2.40;;
61911;SDS011;49973;52.084;5.412;2023-04-01T06:54:25;3.70;;;2.10;;
61911;SDS011;49973;52.084;5.412;2023-04-01T06:57:22;5.77;;;2.03;;
61911;SDS011;49973;52.084;5.412;2023-04-01T06:59:58;4.97;;;2.13;;
61911;SDS011;49973;52.084;5.412;2023-04-01T07:02:32;2.60;;;1.73;;
61911;SDS011;49973;52.084;5.412;2023-04-01T07:05:07;4.27;;;1.67;;
61911;SDS011;49973;52.084;5.412;2023-04-01T07:07:36;5.53;;;1.83;;
61911;SDS011;49973;52.084;5.412;2023-04-01T07:10:13;3.70;;;1.83;;
61911;SDS011;49973;52.084;5.412;2023-04-01T07:13:06;2.73;;;1.30;;
61911;SDS011;49973;52.084;5.412;2023-04-01T07:15:58;2.83;;;1.80;;
61911;SDS011;49973;52.084;5.412;2023-04-01T07:18:39;3.53;;;1.97;;
61911;SDS011;49973;52.084;5.412;2023-04-01T07:21:16;3.23;;;1.87;;
61911;SDS011;49973;52.084;5.412;2023-04-01T07:23:56;4.70;;;2.83;;
61911;SDS011;49973;52.084;5.412;2023-04-01T07:26:39;5.10;;;2.63;;
61911;SDS011;49973;52.084;5.412;2023-04-01T07:29:12;6.63;;;3.30;;
61911;SDS011;49973;52.084;5.412;2023-04-01T07:32:02;10.33;;;3.70;;
61911;SDS011;49973;52.084;5.412;2023-04-01T07:34:39;6.57;;;3.53;;
61911;SDS011;49973;52.084;5.412;2023-04-01T07:37:21;6.03;;;3.23;;
61911;SDS011;49973;52.084;5.412;2023-04-01T07:39:56;9.77;;;3.17;;
61911;SDS011;49973;52.084;5.412;2023-04-01T07:42:40;7.10;;;3.00;;
61911;SDS011;49973;52.084;5.412;2023-04-01T07:45:23;9.37;;;3.37;;
61911;SDS011;49973;52.084;5.412;2023-04-01T07:48:00;7.97;;;3.60;;
61911;SDS011;49973;52.084;5.412;2023-04-01T07:50:41;3.13;;;2.13;;
61911;SDS011;49973;52.084;5.412;2023-04-01T07:53:19;5.13;;;3.40;;
61911;SDS011;49973;52.084;5.412;2023-04-01T07:55:54;5.33;;;3.40;;
61911;SDS011;49973;52.084;5.412;2023-04-01T07:58:34;4.33;;;2.57;;
61911;SDS011;49973;52.084;5.412;2023-04-01T08:01:19;4.23;;;2.73;;
61911;SDS011;49973;52.084;5.412;2023-04-01T08:04:03;6.13;;;3.03;;
61911;SDS011;49973;52.084;5.412;2023-04-01T08:06:45;5.97;;;3.43;;
61911;SDS011;49973;52.084;5.412;2023-04-01T08:09:23;7.93;;;4.03;;
61911;SDS011;49973;52.084;5.412;2023-04-01T08:12:21;7.43;;;4.10;;
61911;SDS011;49973;52.084;5.412;2023-04-01T08:15:02;9.60;;;4.50;;
61911;SDS011;49973;52.084;5.412;2023-04-01T08:17:56;6.73;;;4.20;;
61911;SDS011;49973;52.084;5.412;2023-04-01T08:20:34;9.10;;;4.00;;
61911;SDS011;49973;52.084;5.412;2023-04-01T08:23:11;9.33;;;3.80;;
61911;SDS011;49973;52.084;5.412;2023-04-01T08:25:44;10.70;;;3.57;;
61911;SDS011;49973;52.084;5.412;2023-04-01T08:28:20;10.27;;;4.47;;
61911;SDS011;49973;52.084;5.412;2023-04-01T08:30:53;6.63;;;3.30;;
61911;SDS011;49973;52.084;5.412;2023-04-01T08:33:28;8.97;;;4.37;;
61911;SDS011;49973;52.084;5.412;2023-04-01T08:36:05;9.83;;;4.20;;
61911;SDS011;49973;52.084;5.412;2023-04-01T08:38:39;8.67;;;4.07;;
61911;SDS011;49973;52.084;5.412;2023-04-01T08:45:02;7.60;;;3.93;;
61911;SDS011;49973;52.084;5.412;2023-04-01T08:48:17;9.93;;;4.07;;
61911;SDS011;49973;52.084;5.412;2023-04-01T08:51:05;9.33;;;4.50;;
61911;SDS011;49973;52.084;5.412;2023-04-01T08:53:47;7.13;;;3.30;;
61911;SDS011;49973;52.084;5.412;2023-04-01T08:56:33;9.13;;;3.90;;
61911;SDS011;49973;52.084;5.412;2023-04-01T09:02:49;11.60;;;4.80;;
61911;SDS011;49973;52.084;5.412;2023-04-01T09:05:38;11.97;;;4.40;;
61911;SDS011;49973;52.084;5.412;2023-04-01T09:08:30;8.70;;;4.17;;
61911;SDS011;49973;52.084;5.412;2023-04-01T09:11:08;10.93;;;4.53;;
61911;SDS011;49973;52.084;5.412;2023-04-01T09:20:24;3.83;;;2.70;;
61911;SDS011;49973;52.084;5.412;2023-04-01T09:23:15;4.70;;;3.03;;
61911;SDS011;49973;52.084;5.412;2023-04-01T09:26:10;5.30;;;2.50;;
61911;SDS011;49973;52.084;5.412;2023-04-01T09:28:58;5.67;;;2.53;;
61911;SDS011;49973;52.084;5.412;2023-04-01T09:31:40;6.90;;;3.73;;
61911;SDS011;49973;52.084;5.412;2023-04-01T09:34:57;5.20;;;3.20;;
61911;SDS011;49973;52.084;5.412;2023-04-01T09:37:38;4.67;;;2.30;;
61911;SDS011;49973;52.084;5.412;2023-04-01T09:40:24;6.17;;;2.73;;
61911;SDS011;49973;52.084;5.412;2023-04-01T09:43:12;4.90;;;3.03;;
61911;SDS011;49973;52.084;5.412;2023-04-01T09:45:58;5.07;;;2.53;;
61911;SDS011;49973;52.084;5.412;2023-04-01T09:48:42;6.23;;;2.93;;
61911;SDS011;49973;52.084;5.412;2023-04-01T09:51:26;3.53;;;2.10;;
61911;SDS011;49973;52.084;5.412;2023-04-01T09:54:13;3.80;;;2.37;;
61911;SDS011;49973;52.084;5.412;2023-04-01T10:00:56;4.37;;;2.67;;
61911;SDS011;49973;52.084;5.412;2023-04-01T10:10:30;5.13;;;3.30;;
61911;SDS011;49973;52.084;5.412;2023-04-01T10:13:30;6.10;;;3.93;;
61911;SDS011;49973;52.084;5.412;2023-04-01T10:16:40;6.80;;;3.90;;
61911;SDS011;49973;52.084;5.412;2023-04-01T10:19:44;5.77;;;3.87;;
61911;SDS011;49973;52.084;5.412;2023-04-01T10:25:42;8.50;;;3.40;;
61911;SDS011;49973;52.084;5.412;2023-04-01T10:28:30;6.53;;;3.90;;
61911;SDS011;49973;52.084;5.412;2023-04-01T10:34:55;4.67;;;3.53;;
61911;SDS011;49973;52.084;5.412;2023-04-01T10:40:58;6.93;;;3.70;;
61911;SDS011;49973;52.084;5.412;2023-04-01T10:47:20;6.07;;;4.10;;
61911;SDS011;49973;52.084;5.412;2023-04-01T10:50:24;7.73;;;3.93;;
61911;SDS011;49973;52.084;5.412;2023-04-01T10:53:18;6.07;;;3.60;;
61911;SDS011;49973;52.084;5.412;2023-04-01T10:56:44;5.97;;;3.63;;
61911;SDS011;49973;52.084;5.412;2023-04-01T10:59:48;14.60;;;4.50;;
61911;SDS011;49973;52.084;5.412;2023-04-01T11:09:50;5.37;;;2.97;;
61911;SDS011;49973;52.084;5.412;2023-04-01T11:13:03;4.30;;;2.83;;
61911;SDS011;49973;52.084;5.412;2023-04-01T11:16:02;2.70;;;1.97;;
61911;SDS011;49973;52.084;5.412;2023-04-01T11:21:57;5.33;;;2.30;;
61911;SDS011;49973;52.084;5.412;2023-04-01T11:24:56;4.30;;;2.13;;
61911;SDS011;49973;52.084;5.412;2023-04-01T11:27:59;3.17;;;2.10;;
61911;SDS011;49973;52.084;5.412;2023-04-01T11:31:02;2.60;;;1.37;;
61911;SDS011;49973;52.084;5.412;2023-04-01T11:33:41;2.20;;;1.80;;
61911;SDS011;49973;52.084;5.412;2023-04-01T11:36:18;2.50;;;1.87;;
61911;SDS011;49973;52.084;5.412;2023-04-01T11:39:00;2.07;;;1.53;;
61911;SDS011;49973;52.084;5.412;2023-04-01T11:42:01;3.27;;;2.13;;
61911;SDS011;49973;52.084;5.412;2023-04-01T11:44:58;5.40;;;2.50;;
61911;SDS011;49973;52.084;5.412;2023-04-01T11:47:55;6.57;;;2.50;;
61911;SDS011;49973;52.084;5.412;2023-04-01T11:50:38;2.07;;;1.50;;
61911;SDS011;49973;52.084;5.412;2023-04-01T11:53:26;5.07;;;2.27;;
61911;SDS011;49973;52.084;5.412;2023-04-01T11:56:12;7.57;;;2.60;;
61911;SDS011;49973;52.084;5.412;2023-04-01T11:58:53;3.30;;;1.63;;
61911;SDS011;49973;52.084;5.412;2023-04-01T12:01:44;2.47;;;1.80;;
61911;SDS011;49973;52.084;5.412;2023-04-01T12:04:25;3.53;;;1.60;;
61911;SDS011;49973;52.084;5.412;2023-04-01T12:07:27;4.10;;;1.60;;
61911;SDS011;49973;52.084;5.412;2023-04-01T12:10:15;1.37;;;1.00;;
61911;SDS011;49973;52.084;5.412;2023-04-01T12:12:48;2.43;;;1.23;;
61911;SDS011;49973;52.084;5.412;2023-04-01T12:15:29;2.03;;;1.43;;
61911;SDS011;49973;52.084;5.412;2023-04-01T12:18:14;2.27;;;1.80;;
61911;SDS011;49973;52.084;5.412;2023-04-01T12:20:49;2.60;;;2.00;;
61911;SDS011;49973;52.084;5.412;2023-04-01T12:23:24;2.97;;;2.07;;
61911;SDS011;49973;52.084;5.412;2023-04-01T12:26:17;5.97;;;2.67;;
61911;SDS011;49973;52.084;5.412;2023-04-01T12:29:07;4.43;;;2.43;;
61911;SDS011;49973;52.084;5.412;2023-04-01T12:31:47;7.93;;;3.87;;
61911;SDS011;49973;52.084;5.412;2023-04-01T12:34:33;11.63;;;5.13;;
61911;SDS011;49973;52.084;5.412;2023-04-01T12:37:20;8.23;;;4.07;;
61911;SDS011;49973;52.084;5.412;2023-04-01T12:39:57;8.07;;;4.60;;
61911;SDS011;49973;52.084;5.412;2023-04-01T12:42:51;9.40;;;4.83;;
61911;SDS011;49973;52.084;5.412;2023-04-01T12:45:33;8.10;;;4.83;;
61911;SDS011;49973;52.084;5.412;2023-04-01T12:48:17;9.10;;;5.80;;
61911;SDS011;49973;52.084;5.412;2023-04-01T12:51:26;12.10;;;5.67;;
61911;SDS011;49973;52.084;5.412;2023-04-01T12:57:14;11.27;;;6.70;;
61911;SDS011;49973;52.084;5.412;2023-04-01T13:00:11;17.13;;;8.03;;
61911;SDS011;49973;52.084;5.412;2023-04-01T13:02:56;11.47;;;6.30;;
61911;SDS011;49973;52.084;5.412;2023-04-01T13:05:40;11.60;;;6.43;;
61911;SDS011;49973;52.084;5.412;2023-04-01T13:08:28;15.00;;;7.90;;
61911;SDS011;49973;52.084;5.412;2023-04-01T13:11:13;11.93;;;6.63;;
61911;SDS011;49973;52.084;5.412;2023-04-01T13:17:12;12.17;;;7.00;;
61911;SDS011;49973;52.084;5.412;2023-04-01T13:19:49;9.93;;;5.67;;
61911;SDS011;49973;52.084;5.412;2023-04-01T13:22:34;11.50;;;5.63;;
61911;SDS011;49973;52.084;5.412;2023-04-01T13:25:15;9.93;;;5.47;;
61911;SDS011;49973;52.084;5.412;2023-04-01T13:27:56;11.43;;;5.50;;
61911;SDS011;49973;52.084;5.412;2023-04-01T13:30:33;8.83;;;5.10;;
61911;SDS011;49973;52.084;5.412;2023-04-01T13:33:12;10.70;;;5.20;;
61911;SDS011;49973;52.084;5.412;2023-04-01T13:35:46;21.23;;;4.77;;
61911;SDS011;49973;52.084;5.412;2023-04-01T13:38:28;8.10;;;4.80;;
61911;SDS011;49973;52.084;5.412;2023-04-01T13:41:11;6.33;;;3.60;;
61911;SDS011;49973;52.084;5.412;2023-04-01T13:43:51;7.83;;;4.10;;
61911;SDS011;49973;52.084;5.412;2023-04-01T13:46:35;9.17;;;3.83;;
61911;SDS011;49973;52.084;5.412;2023-04-01T13:52:20;9.07;;;3.23;;
61911;SDS011;49973;52.084;5.412;2023-04-01T13:55:30;10.37;;;5.70;;
61911;SDS011;49973;52.084;5.412;2023-04-01T13:58:20;3.63;;;2.13;;
61911;SDS011;49973;52.084;5.412;2023-04-01T14:01:00;3.73;;;2.47;;
61911;SDS011;49973;52.084;5.412;2023-04-01T14:03:40;2.67;;;2.13;;
61911;SDS011;49973;52.084;5.412;2023-04-01T14:06:20;6.77;;;3.50;;
61911;SDS011;49973;52.084;5.412;2023-04-01T14:11:50;5.33;;;2.83;;
61911;SDS011;49973;52.084;5.412;2023-04-01T14:14:31;4.67;;;2.93;;
61911;SDS011;49973;52.084;5.412;2023-04-01T14:17:15;3.77;;;2.33;;
61911;SDS011;49973;52.084;5.412;2023-04-01T14:19:58;5.43;;;3.87;;
61911;SDS011;49973;52.084;5.412;2023-04-01T14:22:43;6.83;;;4.60;;
61911;SDS011;49973;52.084;5.412;2023-04-01T14:25:33;8.00;;;4.77;;
61911;SDS011;49973;52.084;5.412;2023-04-01T14:28:18;7.27;;;4.13;;
61911;SDS011;49973;52.084;5.412;2023-04-01T14:33:58;7.03;;;4.17;;
61911;SDS011;49973;52.084;5.412;2023-04-01T14:36:41;6.37;;;3.93;;
61911;SDS011;49973;52.084;5.412;2023-04-01T14:39:23;9.03;;;4.40;;
61911;SDS011;49973;52.084;5.412;2023-04-01T14:42:13;7.17;;;4.20;;
61911;SDS011;49973;52.084;5.412;2023-04-01T14:45:02;6.20;;;3.37;;
61911;SDS011;49973;52.084;5.412;2023-04-01T14:47:56;7.47;;;3.90;;
61911;SDS011;49973;52.084;5.412;2023-04-01T14:50:28;7.17;;;3.30;;
61911;SDS011;49973;52.084;5.412;2023-04-01T14:52:59;17.90;;;4.07;;
61911;SDS011;49973;52.084;5.412;2023-04-01T14:55:47;6.00;;;4.00;;
61911;SDS011;49973;52.084;5.412;2023-04-01T14:58:18;6.03;;;3.70;;
61911;SDS011;49973;52.084;5.412;2023-04-01T15:00:54;4.97;;;3.27;;
61911;SDS011;49973;52.084;5.412;2023-04-01T15:03:36;6.97;;;4.17;;
61911;SDS011;49973;52.084;5.412;2023-04-01T15:06:27;6.40;;;3.33;;
61911;SDS011;49973;52.084;5.412;2023-04-01T15:09:10;6.03;;;3.47;;
61911;SDS011;49973;52.084;5.412;2023-04-01T15:11:50;6.60;;;3.63;;
61911;SDS011;49973;52.084;5.412;2023-04-01T15:14:40;5.20;;;3.33;;
61911;SDS011;49973;52.084;5.412;2023-04-01T15:17:20;11.10;;;3.80;;
61911;SDS011;49973;52.084;5.412;2023-04-01T15:20:04;5.37;;;4.03;;
61911;SDS011;49973;52.084;5.412;2023-04-01T15:22:58;8.23;;;4.47;;
61911;SDS011;49973;52.084;5.412;2023-04-01T15:25:43;6.20;;;3.97;;
61911;SDS011;49973;52.084;5.412;2023-04-01T15:28:23;6.40;;;4.53;;
61911;SDS011;49973;52.084;5.412;2023-04-01T15:30:59;6.73;;;3.83;;
61911;SDS011;49973;52.084;5.412;2023-04-01T15:36:29;4.70;;;3.43;;
61911;SDS011;49973;52.084;5.412;2023-04-01T15:39:04;5.07;;;3.43;;
61911;SDS011;49973;52.084;5.412;2023-04-01T15:41:40;6.53;;;3.67;;
61911;SDS011;49973;52.084;5.412;2023-04-01T15:44:27;7.03;;;3.43;;
61911;SDS011;49973;52.084;5.412;2023-04-01T15:47:08;4.37;;;3.03;;
61911;SDS011;49973;52.084;5.412;2023-04-01T15:49:54;3.27;;;2.40;;
61911;SDS011;49973;52.084;5.412;2023-04-01T15:52:35;5.57;;;3.33;;
61911;SDS011;49973;52.084;5.412;2023-04-01T15:55:14;6.17;;;3.00;;
61911;SDS011;49973;52.084;5.412;2023-04-01T15:57:52;6.17;;;2.73;;
61911;SDS011;49973;52.084;5.412;2023-04-01T16:00:40;4.00;;;2.77;;
61911;SDS011;49973;52.084;5.412;2023-04-01T16:03:17;4.87;;;2.77;;
61911;SDS011;49973;52.084;5.412;2023-04-01T16:09:17;3.77;;;3.17;;
61911;SDS011;49973;52.084;5.412;2023-04-01T16:12:15;4.33;;;3.13;;
61911;SDS011;49973;52.084;5.412;2023-04-01T16:14:50;6.37;;;3.83;;
61911;SDS011;49973;52.084;5.412;2023-04-01T16:17:36;5.13;;;3.37;;
61911;SDS011;49973;52.084;5.412;2023-04-01T16:20:18;4.87;;;3.10;;
61911;SDS011;49973;52.084;5.412;2023-04-01T16:22:49;4.33;;;3.30;;
61911;SDS011;49973;52.084;5.412;2023-04-01T16:25:26;4.63;;;3.20;;
61911;SDS011;49973;52.084;5.412;2023-04-01T16:28:12;4.63;;;3.30;;
61911;SDS011;49973;52.084;5.412;2023-04-01T16:30:48;6.27;;;4.00;;
61911;SDS011;49973;52.084;5.412;2023-04-01T16:33:27;6.37;;;4.47;;
61911;SDS011;49973;52.084;5.412;2023-04-01T16:36:10;8.67;;;5.27;;
61911;SDS011;49973;52.084;5.412;2023-04-01T16:38:48;5.53;;;3.80;;
61911;SDS011;49973;52.084;5.412;2023-04-01T16:41:24;23.70;;;19.53;;
61911;SDS011;49973;52.084;5.412;2023-04-01T16:43:57;6.50;;;5.03;;
61911;SDS011;49973;52.084;5.412;2023-04-01T16:46:38;7.43;;;4.23;;
61911;SDS011;49973;52.084;5.412;2023-04-01T16:52:13;9.30;;;6.23;;
61911;SDS011;49973;52.084;5.412;2023-04-01T16:54:45;12.40;;;9.00;;
61911;SDS011;49973;52.084;5.412;2023-04-01T16:57:19;6.17;;;3.60;;
61911;SDS011;49973;52.084;5.412;2023-04-01T16:59:54;13.17;;;8.97;;
61911;SDS011;49973;52.084;5.412;2023-04-01T17:02:28;6.83;;;5.07;;
61911;SDS011;49973;52.084;5.412;2023-04-01T17:05:04;6.67;;;4.70;;
61911;SDS011;49973;52.084;5.412;2023-04-01T17:07:42;5.93;;;4.50;;
61911;SDS011;49973;52.084;5.412;2023-04-01T17:16:06;6.30;;;5.03;;
61911;SDS011;49973;52.084;5.412;2023-04-01T17:18:46;8.60;;;3.70;;